Terminal Aerodrome Forecast
Issued by NWS

Home | Current Version | Previous Version | Text Only | Print | Product List | Glossary Off
Versions: 1 2 3 4 5 6 7 8 9 10 11 12 13 14 15 16 17 18 19 20 21 22 23 24 25

821
FTUS43 KMPX 212000 AAA
TAFRWF
TAF AMD
KRWF 212000Z 2120/2218 VRB03KT 1/2SM FG OVC002
     FM220200 VRB02KT 1/4SM FG VV002
     FM221500 31006KT 2SM BR OVC004=

USA.gov is the U.S. government's official web portal to all federal, state and local government web resources and services.